Time;durP1;ratioP1;P1;durP2;ratioP2;P2;SDS_P1;SDS_P2;PMS_P1;PMS_P2;Temp;Humidity;BMP_temperature;BMP_pressure;BME280_temperature;BME280_humidity;BME280_pressure;Samples;Min_cycle;Max_cycle;Signal;HPM_P1;HPM_P2
2022/03/21 00:00:03;;;;;;;;;;;;;;;;;;350605;28;1593;-76
2022/03/21 00:00:14;;;;;;;;;;;;;;;;;;350725;28;1679;-76
2022/03/21 00:00:25;;;;;;;;;;;;;;;;;;351446;28;1183;-76
2022/03/21 00:00:36;;;;;;;;;;;;;;;;;;351480;27;984;-76
2022/03/21 00:00:46;;;;;;;;;;;;;;;;;;351483;28;838;-76
2022/03/21 00:00:59;;;;;;;;;;;;;;;;;;351524;28;869;-76
2022/03/21 00:01:16;;;;;;;;;;;;;;;;;;350994;28;1902;-76
2022/03/21 00:01:26;;;;;;;;;;;;;;;;;;350681;28;1878;-76
2022/03/21 00:01:37;;;;;;;;;;;;;;;;;;351506;28;810;-76
2022/03/21 00:01:48;;;;;;;;;;;;;;;;;;351419;28;1572;-76
2022/03/21 00:01:58;;;;;;;;;;;;;;;;;;350062;28;1812;-76
2022/03/21 00:02:09;;;;;;;;;;;;;;;;;;351490;28;940;-76
2022/03/21 00:02:19;;;;;;;;;;;;;;;;;;351492;28;1044;-76
2022/03/21 00:02:29;;;;;;;;;;;;;;;;;;351492;28;841;-76
2022/03/21 00:02:40;;;;;;;;;;;;;;;;;;351477;28;900;-76
2022/03/21 00:02:50;;;;;;;;;;;;;;;;;;351444;28;1111;-76
2022/03/21 00:03:01;;;;;;;;;;;;;;;;;;351486;28;968;-76
2022/03/21 00:03:12;;;;;;;;;;;;;;;;;;351463;28;932;-76
2022/03/21 00:03:26;;;;;;;;;;;;;;;;;;351420;28;1043;-76
2022/03/21 00:03:36;;;;;;;;;;;;;;;;;;351495;28;845;-76
2022/03/21 00:03:46;;;;;;;;;;;;;;;;;;351504;28;959;-76
2022/03/21 00:03:58;;;;;;;;;;;;;;;;;;351446;28;980;-76
2022/03/21 00:04:08;;;;;;;;;;;;;;;;;;351413;28;1631;-76
2022/03/21 00:04:19;;;;;;;;;;;;;;;;;;351448;28;953;-76
2022/03/21 00:04:29;;;;;;;;;;;;;;;;;;351466;28;905;-76
2022/03/21 00:04:39;;;;;;;;;;;;;;;;;;351419;28;969;-76
2022/03/21 00:04:49;;;;;;;;;;;;;;;;;;351510;28;838;-76
2022/03/21 00:05:00;;;;;;;;;;;;;;;;;;351484;28;885;-75
2022/03/21 00:05:10;;;;;;;;;;;;;;;;;;351481;28;968;-76
2022/03/21 00:05:20;;;;;;;;;;;;;;;;;;351501;28;976;-76
2022/03/21 00:05:31;;;;;;;;;;;;;;;;;;350942;28;1926;-76
2022/03/21 00:05:42;;;;;;;;;;;;;;;;;;351115;28;1946;-76
2022/03/21 00:05:52;;;;;;;;;;;;;;;;;;350107;28;964;-76
2022/03/21 00:06:03;;;;;;;;;;;;;;;;;;350084;28;866;-76
2022/03/21 00:06:13;;;;;;;;;;;;;;;;;;350081;28;872;-76
2022/03/21 00:06:23;;;;;;;;;;;;;;;;;;350304;28;1573;-75
2022/03/21 00:06:33;;;;;;;;;;;;;;;;;;351421;28;1560;-75
2022/03/21 00:06:44;;;;;;;;;;;;;;;;;;351535;28;972;-76
2022/03/21 00:06:54;;;;;;;;;;;;;;;;;;351459;28;984;-76
2022/03/21 00:07:05;;;;;;;;;;;;;;;;;;351436;28;1043;-76
2022/03/21 00:07:16;;;;;;;;;;;;;;;;;;351419;28;924;-76
2022/03/21 00:07:26;;;;;;;;;;;;;;;;;;351158;28;1316;-76
2022/03/21 00:07:36;;;;;;;;;;;;;;;;;;351346;28;1487;-76
2022/03/21 00:07:46;;;;;;;;;;;;;;;;;;351455;28;920;-76
2022/03/21 00:07:57;;;;;;;;;;;;;;;;;;351471;28;873;-76
2022/03/21 00:08:07;;;;;;;;;;;;;;;;;;351406;28;1055;-76
2022/03/21 00:08:18;;;;;;;;;;;;;;;;;;351502;28;861;-76
2022/03/21 00:08:28;;;;;;;;;;;;;;;;;;351453;28;924;-76
2022/03/21 00:08:39;;;;;;;;;;;;;;;;;;351465;28;901;-76
2022/03/21 00:08:49;;;;;;;;;;;;;;;;;;351465;28;908;-76
2022/03/21 00:08:59;;;;;;;;;;;;;;;;;;351348;28;1968;-76
2022/03/21 00:09:10;;;;;;;;;;;;;;;;;;350245;28;1472;-76
2022/03/21 00:09:20;;;;;;;;;;;;;;;;;;350069;28;968;-76
2022/03/21 00:09:30;;;;;;;;;;;;;;;;;;350037;28;1012;-76
2022/03/21 00:09:40;;;;;;;;;;;;;;;;;;350036;28;928;-76
2022/03/21 00:09:51;;;;;;;;;;;;;;;;;;349969;28;968;-76
2022/03/21 00:10:01;;;;;;;;;;;;;;;;;;350053;28;980;-76
2022/03/21 00:10:11;;;;;;;;;;;;;;;;;;350091;28;821;-76
2022/03/21 00:10:21;;;;;;;;;;;;;;;;;;350083;28;786;-76
2022/03/21 00:10:33;;;;;;;;;;;;;;;;;;350040;28;836;-76
2022/03/21 00:10:44;;;;;;;;;;;;;;;;;;350081;28;825;-76
2022/03/21 00:10:56;;;;;;;;;;;;;;;;;;350112;28;775;-76
2022/03/21 00:11:06;;;;;;;;;;;;;;;;;;350063;28;868;-76
2022/03/21 00:11:16;;;;;;;;;;;;;;;;;;350036;28;913;-76
2022/03/21 00:11:26;;;;;;;;;;;;;;;;;;350120;28;884;-76
2022/03/21 00:11:36;;;;;;;;;;;;;;;;;;350076;28;913;-76
2022/03/21 00:11:47;;;;;;;;;;;;;;;;;;350014;28;1019;-76
2022/03/21 00:11:57;;;;;;;;;;;;;;;;;;350045;28;897;-76
2022/03/21 00:12:07;;;;;;;;;;;;;;;;;;350045;28;972;-76
2022/03/21 00:12:19;;;;;;;;;;;;;;;;;;350082;28;806;-76
2022/03/21 00:12:30;;;;;;;;;;;;;;;;;;350024;28;1000;-76
2022/03/21 00:12:41;;;;;;;;;;;;;;;;;;350054;28;899;-76
2022/03/21 00:12:51;;;;;;;;;;;;;;;;;;350231;28;1958;-76
2022/03/21 00:13:02;;;;;;;;;;;;;;;;;;350168;28;1858;-76
2022/03/21 00:13:15;;;;;;;;;;;;;;;;;;351453;28;924;-76
2022/03/21 00:13:26;;;;;;;;;;;;;;;;;;351455;28;945;-76
2022/03/21 00:13:38;;;;;;;;;;;;;;;;;;351444;28;776;-76
2022/03/21 00:13:51;;;;;;;;;;;;;;;;;;351470;28;885;-76
2022/03/21 00:14:01;;;;;;;;;;;;;;;;;;351430;28;1603;-76
2022/03/21 00:14:12;;;;;;;;;;;;;;;;;;350168;27;1808;-76
2022/03/21 00:14:23;;;;;;;;;;;;;;;;;;351322;28;1797;-76
2022/03/21 00:14:33;;;;;;;;;;;;;;;;;;351447;28;909;-76
2022/03/21 00:14:43;;;;;;;;;;;;;;;;;;350944;28;1780;-76
2022/03/21 00:14:54;;;;;;;;;;;;;;;;;;350121;28;869;-76
2022/03/21 00:15:05;;;;;;;;;;;;;;;;;;350035;28;909;-76
2022/03/21 00:15:15;;;;;;;;;;;;;;;;;;350058;28;988;-76
2022/03/21 00:15:26;;;;;;;;;;;;;;;;;;350083;28;873;-76
2022/03/21 00:15:37;;;;;;;;;;;;;;;;;;349936;28;1157;-76
2022/03/21 00:15:48;;;;;;;;;;;;;;;;;;350053;28;976;-76
2022/03/21 00:15:58;;;;;;;;;;;;;;;;;;349998;28;917;-76
2022/03/21 00:16:08;;;;;;;;;;;;;;;;;;350070;28;921;-76
2022/03/21 00:16:19;;;;;;;;;;;;;;;;;;350080;28;853;-76
2022/03/21 00:16:29;;;;;;;;;;;;;;;;;;350057;28;1023;-76
2022/03/21 00:16:40;;;;;;;;;;;;;;;;;;349975;28;976;-76
2022/03/21 00:16:50;;;;;;;;;;;;;;;;;;350083;28;918;-76
2022/03/21 00:17:00;;;;;;;;;;;;;;;;;;350305;28;1425;-76
2022/03/21 00:17:10;;;;;;;;;;;;;;;;;;351356;28;1437;-76
2022/03/21 00:17:20;;;;;;;;;;;;;;;;;;351461;28;897;-76
2022/03/21 00:17:31;;;;;;;;;;;;;;;;;;351530;28;1252;-76
2022/03/21 00:17:41;;;;;;;;;;;;;;;;;;352772;28;1029;-76
2022/03/21 00:17:51;;;;;;;;;;;;;;;;;;352829;28;1081;-76
2022/03/21 00:18:03;;;;;;;;;;;;;;;;;;352546;28;1575;-76
2022/03/21 00:18:14;;;;;;;;;;;;;;;;;;349989;28;1753;-76
2022/03/21 00:18:25;;;;;;;;;;;;;;;;;;351503;28;912;-76
2022/03/21 00:18:38;;;;;;;;;;;;;;;;;;351420;28;941;-76
2022/03/21 00:18:48;;;;;;;;;;;;;;;;;;351494;28;838;-76
2022/03/21 00:19:00;;;;;;;;;;;;;;;;;;351499;28;940;-76
2022/03/21 00:19:10;;;;;;;;;;;;;;;;;;351486;28;1027;-76
2022/03/21 00:19:21;;;;;;;;;;;;;;;;;;351458;28;933;-76
2022/03/21 00:19:31;;;;;;;;;;;;;;;;;;351397;28;1003;-76
2022/03/21 00:19:41;;;;;;;;;;;;;;;;;;351377;28;1643;-76
2022/03/21 00:19:51;;;;;;;;;;;;;;;;;;350930;28;1694;-76
2022/03/21 00:20:02;;;;;;;;;;;;;;;;;;350222;28;1828;-75
2022/03/21 00:20:13;;;;;;;;;;;;;;;;;;349882;28;1012;-76
2022/03/21 00:20:23;;;;;;;;;;;;;;;;;;350237;28;1881;-76
2022/03/21 00:20:33;;;;;;;;;;;;;;;;;;351418;28;916;-76
2022/03/21 00:20:44;;;;;;;;;;;;;;;;;;351437;28;901;-76
2022/03/21 00:20:55;;;;;;;;;;;;;;;;;;351446;28;995;-76
2022/03/21 00:21:05;;;;;;;;;;;;;;;;;;351463;28;829;-76
2022/03/21 00:21:17;;;;;;;;;;;;;;;;;;351404;28;900;-76
2022/03/21 00:21:27;;;;;;;;;;;;;;;;;;351467;28;961;-76
2022/03/21 00:21:38;;;;;;;;;;;;;;;;;;351470;28;965;-76
2022/03/21 00:21:48;;;;;;;;;;;;;;;;;;350456;28;1678;-76
2022/03/21 00:21:58;;;;;;;;;;;;;;;;;;350008;28;1350;-76
2022/03/21 00:22:08;;;;;;;;;;;;;;;;;;350021;28;917;-76
2022/03/21 00:22:20;;;;;;;;;;;;;;;;;;350020;28;797;-76
2022/03/21 00:22:30;;;;;;;;;;;;;;;;;;350093;28;832;-76
2022/03/21 00:22:40;;;;;;;;;;;;;;;;;;350047;28;1008;-76
2022/03/21 00:22:50;;;;;;;;;;;;;;;;;;350082;28;881;-76
2022/03/21 00:23:02;;;;;;;;;;;;;;;;;;350012;28;949;-76
2022/03/21 00:23:12;;;;;;;;;;;;;;;;;;350052;28;806;-76
2022/03/21 00:23:23;;;;;;;;;;;;;;;;;;350074;28;944;-76
2022/03/21 00:23:35;;;;;;;;;;;;;;;;;;350055;28;1042;-76
2022/03/21 00:23:46;;;;;;;;;;;;;;;;;;350059;28;799;-76
2022/03/21 00:23:57;;;;;;;;;;;;;;;;;;349996;28;1032;-76
2022/03/21 00:24:07;;;;;;;;;;;;;;;;;;350068;28;909;-76
2022/03/21 00:24:17;;;;;;;;;;;;;;;;;;349985;28;794;-76
2022/03/21 00:24:27;;;;;;;;;;;;;;;;;;350065;28;953;-76
2022/03/21 00:24:38;;;;;;;;;;;;;;;;;;350047;28;845;-76
2022/03/21 00:24:50;;;;;;;;;;;;;;;;;;349965;28;956;-76
2022/03/21 00:25:00;;;;;;;;;;;;;;;;;;350097;28;956;-76
2022/03/21 00:25:10;;;;;;;;;;;;;;;;;;350057;28;925;-76
2022/03/21 00:25:21;;;;;;;;;;;;;;;;;;350057;28;960;-76
2022/03/21 00:25:31;;;;;;;;;;;;;;;;;;350084;28;889;-76
2022/03/21 00:25:41;;;;;;;;;;;;;;;;;;350000;28;909;-76
2022/03/21 00:25:52;;;;;;;;;;;;;;;;;;350886;28;1737;-76
2022/03/21 00:26:03;;;;;;;;;;;;;;;;;;351412;28;983;-76
2022/03/21 00:26:15;;;;;;;;;;;;;;;;;;351455;28;907;-76
2022/03/21 00:26:25;;;;;;;;;;;;;;;;;;351429;28;836;-76
2022/03/21 00:26:35;;;;;;;;;;;;;;;;;;351397;28;950;-76
2022/03/21 00:26:45;;;;;;;;;;;;;;;;;;351456;28;797;-76
2022/03/21 00:26:56;;;;;;;;;;;;;;;;;;351479;28;932;-76
2022/03/21 00:27:12;;;;;;;;;;;;;;;;;;351438;28;987;-76
2022/03/21 00:27:22;;;;;;;;;;;;;;;;;;351438;28;948;-76
2022/03/21 00:27:33;;;;;;;;;;;;;;;;;;351358;28;883;-76
2022/03/21 00:27:43;;;;;;;;;;;;;;;;;;351455;28;909;-76
2022/03/21 00:27:53;;;;;;;;;;;;;;;;;;351439;28;904;-76
2022/03/21 00:28:04;;;;;;;;;;;;;;;;;;350665;28;1953;-76
2022/03/21 00:28:15;;;;;;;;;;;;;;;;;;351106;28;1941;-76
2022/03/21 00:28:25;;;;;;;;;;;;;;;;;;349984;28;999;-76
2022/03/21 00:28:35;;;;;;;;;;;;;;;;;;349976;28;972;-76
2022/03/21 00:28:46;;;;;;;;;;;;;;;;;;350795;28;1961;-76
2022/03/21 00:28:56;;;;;;;;;;;;;;;;;;351408;28;836;-76
2022/03/21 00:29:08;;;;;;;;;;;;;;;;;;351406;28;1891;-76
2022/03/21 00:29:18;;;;;;;;;;;;;;;;;;351359;28;1003;-76
2022/03/21 00:29:29;;;;;;;;;;;;;;;;;;351237;28;1327;-75
2022/03/21 00:29:39;;;;;;;;;;;;;;;;;;351399;28;1441;-76
2022/03/21 00:29:49;;;;;;;;;;;;;;;;;;351445;28;888;-76
2022/03/21 00:29:59;;;;;;;;;;;;;;;;;;351273;28;1323;-75
2022/03/21 00:30:10;;;;;;;;;;;;;;;;;;351354;28;1098;-76
2022/03/21 00:30:20;;;;;;;;;;;;;;;;;;351251;28;1180;-76
2022/03/21 00:30:31;;;;;;;;;;;;;;;;;;351447;28;936;-76
2022/03/21 00:30:42;;;;;;;;;;;;;;;;;;351379;28;1018;-76
2022/03/21 00:30:53;;;;;;;;;;;;;;;;;;351421;28;923;-76
2022/03/21 00:31:04;;;;;;;;;;;;;;;;;;351452;28;975;-76
2022/03/21 00:31:16;;;;;;;;;;;;;;;;;;351400;28;983;-76
2022/03/21 00:31:27;;;;;;;;;;;;;;;;;;351248;28;1378;-76
2022/03/21 00:31:37;;;;;;;;;;;;;;;;;;351451;28;947;-76
2022/03/21 00:31:47;;;;;;;;;;;;;;;;;;351369;28;1064;-76
2022/03/21 00:31:58;;;;;;;;;;;;;;;;;;351442;28;936;-76
2022/03/21 00:32:08;;;;;;;;;;;;;;;;;;351472;28;841;-76
2022/03/21 00:32:18;;;;;;;;;;;;;;;;;;351433;28;1019;-76
2022/03/21 00:32:28;;;;;;;;;;;;;;;;;;351390;28;920;-76
2022/03/21 00:32:39;;;;;;;;;;;;;;;;;;351235;28;1124;-76
2022/03/21 00:32:49;;;;;;;;;;;;;;;;;;351448;28;774;-76
2022/03/21 00:32:59;;;;;;;;;;;;;;;;;;351382;28;1007;-76
2022/03/21 00:33:11;;;;;;;;;;;;;;;;;;351427;28;892;-76
2022/03/21 00:33:21;;;;;;;;;;;;;;;;;;351405;28;991;-76
2022/03/21 00:33:31;;;;;;;;;;;;;;;;;;351307;28;1006;-76
2022/03/21 00:33:42;;;;;;;;;;;;;;;;;;351415;28;886;-76
2022/03/21 00:33:53;;;;;;;;;;;;;;;;;;351397;28;1079;-76
2022/03/21 00:34:03;;;;;;;;;;;;;;;;;;351435;27;928;-76
2022/03/21 00:34:13;;;;;;;;;;;;;;;;;;351411;28;856;-76
2022/03/21 00:34:23;;;;;;;;;;;;;;;;;;351491;28;1049;-76
2022/03/21 00:34:34;;;;;;;;;;;;;;;;;;351450;28;920;-76
2022/03/21 00:34:44;;;;;;;;;;;;;;;;;;351397;28;907;-76
2022/03/21 00:34:54;;;;;;;;;;;;;;;;;;351374;28;1158;-76
2022/03/21 00:35:06;;;;;;;;;;;;;;;;;;351397;28;964;-76
2022/03/21 00:35:16;;;;;;;;;;;;;;;;;;351426;28;937;-76
2022/03/21 00:35:28;;;;;;;;;;;;;;;;;;351426;28;1009;-77
2022/03/21 00:35:38;;;;;;;;;;;;;;;;;;351492;28;845;-76
2022/03/21 00:35:51;;;;;;;;;;;;;;;;;;350866;28;2036;-76
2022/03/21 00:36:01;;;;;;;;;;;;;;;;;;350428;28;1910;-76
2022/03/21 00:36:11;;;;;;;;;;;;;;;;;;351430;28;879;-76
2022/03/21 00:36:22;;;;;;;;;;;;;;;;;;351412;28;924;-76
2022/03/21 00:36:33;;;;;;;;;;;;;;;;;;351457;28;841;-76
2022/03/21 00:36:44;;;;;;;;;;;;;;;;;;351389;28;821;-76
2022/03/21 00:36:55;;;;;;;;;;;;;;;;;;351365;28;1039;-76
2022/03/21 00:37:06;;;;;;;;;;;;;;;;;;351432;28;897;-76
2022/03/21 00:37:16;;;;;;;;;;;;;;;;;;351468;28;802;-76
2022/03/21 00:37:26;;;;;;;;;;;;;;;;;;351476;28;941;-76
2022/03/21 00:37:37;;;;;;;;;;;;;;;;;;351336;28;783;-76
2022/03/21 00:37:48;;;;;;;;;;;;;;;;;;351453;28;1012;-76
2022/03/21 00:37:59;;;;;;;;;;;;;;;;;;351425;28;845;-76
2022/03/21 00:38:14;;;;;;;;;;;;;;;;;;351499;28;864;-76
2022/03/21 00:38:24;;;;;;;;;;;;;;;;;;351434;28;849;-76
2022/03/21 00:38:37;;;;;;;;;;;;;;;;;;351373;28;1020;-76
2022/03/21 00:38:47;;;;;;;;;;;;;;;;;;351441;28;1127;-76
2022/03/21 00:38:57;;;;;;;;;;;;;;;;;;351363;28;867;-76
2022/03/21 00:39:08;;;;;;;;;;;;;;;;;;351364;28;956;-76
2022/03/21 00:39:18;;;;;;;;;;;;;;;;;;351417;28;960;-76
2022/03/21 00:39:28;;;;;;;;;;;;;;;;;;351355;28;1019;-76
2022/03/21 00:39:41;;;;;;;;;;;;;;;;;;351417;28;1055;-76
2022/03/21 00:39:52;;;;;;;;;;;;;;;;;;351452;28;883;-76
2022/03/21 00:40:02;;;;;;;;;;;;;;;;;;351412;28;912;-76
2022/03/21 00:40:13;;;;;;;;;;;;;;;;;;351446;28;881;-76
2022/03/21 00:40:26;;;;;;;;;;;;;;;;;;351356;28;1138;-76
2022/03/21 00:40:36;;;;;;;;;;;;;;;;;;351476;28;786;-76
2022/03/21 00:40:47;;;;;;;;;;;;;;;;;;351444;28;897;-76
2022/03/21 00:40:57;;;;;;;;;;;;;;;;;;351390;28;1058;-76
2022/03/21 00:41:07;;;;;;;;;;;;;;;;;;351370;28;983;-76
2022/03/21 00:41:18;;;;;;;;;;;;;;;;;;351376;28;789;-76
2022/03/21 00:41:31;;;;;;;;;;;;;;;;;;351359;28;983;-76
2022/03/21 00:41:42;;;;;;;;;;;;;;;;;;351068;28;1811;-76
2022/03/21 00:41:52;;;;;;;;;;;;;;;;;;350037;28;856;-76
2022/03/21 00:42:04;;;;;;;;;;;;;;;;;;351045;28;1273;-76
2022/03/21 00:42:14;;;;;;;;;;;;;;;;;;351428;28;853;-76
2022/03/21 00:42:25;;;;;;;;;;;;;;;;;;351474;28;916;-76
2022/03/21 00:42:37;;;;;;;;;;;;;;;;;;351387;28;892;-76
2022/03/21 00:42:49;;;;;;;;;;;;;;;;;;351384;28;936;-77
2022/03/21 00:42:59;;;;;;;;;;;;;;;;;;351428;28;982;-76
2022/03/21 00:43:10;;;;;;;;;;;;;;;;;;351359;28;935;-76
2022/03/21 00:43:24;;;;;;;;;;;;;;;;;;351438;28;787;-76
2022/03/21 00:43:34;;;;;;;;;;;;;;;;;;351421;28;976;-76
2022/03/21 00:43:45;;;;;;;;;;;;;;;;;;351427;28;1077;-76
2022/03/21 00:43:55;;;;;;;;;;;;;;;;;;351454;28;921;-76
2022/03/21 00:44:05;;;;;;;;;;;;;;;;;;351436;28;805;-76
2022/03/21 00:44:15;;;;;;;;;;;;;;;;;;351423;28;900;-76
2022/03/21 00:44:26;;;;;;;;;;;;;;;;;;351455;28;948;-76
2022/03/21 00:44:36;;;;;;;;;;;;;;;;;;351448;28;828;-76
2022/03/21 00:44:47;;;;;;;;;;;;;;;;;;351187;28;1666;-76
2022/03/21 00:44:57;;;;;;;;;;;;;;;;;;351371;28;979;-76
2022/03/21 00:45:10;;;;;;;;;;;;;;;;;;351403;28;956;-76
2022/03/21 00:45:22;;;;;;;;;;;;;;;;;;350144;28;1765;-76
2022/03/21 00:45:32;;;;;;;;;;;;;;;;;;351010;28;1740;-76
2022/03/21 00:45:43;;;;;;;;;;;;;;;;;;351454;28;841;-76
2022/03/21 00:45:54;;;;;;;;;;;;;;;;;;351355;28;1536;-76
2022/03/21 00:46:05;;;;;;;;;;;;;;;;;;350983;28;1654;-75
2022/03/21 00:46:15;;;;;;;;;;;;;;;;;;351431;28;948;-76
2022/03/21 00:46:25;;;;;;;;;;;;;;;;;;351374;28;1451;-75
2022/03/21 00:46:36;;;;;;;;;;;;;;;;;;351294;28;1540;-76
2022/03/21 00:46:47;;;;;;;;;;;;;;;;;;351441;28;995;-76
2022/03/21 00:46:57;;;;;;;;;;;;;;;;;;351449;28;774;-76
2022/03/21 00:47:08;;;;;;;;;;;;;;;;;;351357;28;897;-76
2022/03/21 00:47:18;;;;;;;;;;;;;;;;;;351123;28;1580;-75
2022/03/21 00:47:28;;;;;;;;;;;;;;;;;;350026;28;913;-76
2022/03/21 00:47:39;;;;;;;;;;;;;;;;;;349945;28;1125;-76
2022/03/21 00:47:49;;;;;;;;;;;;;;;;;;349946;28;1588;-76
2022/03/21 00:47:59;;;;;;;;;;;;;;;;;;349926;28;1773;-76
2022/03/21 00:48:10;;;;;;;;;;;;;;;;;;349964;28;920;-76
2022/03/21 00:48:24;;;;;;;;;;;;;;;;;;349989;28;932;-76
2022/03/21 00:48:34;;;;;;;;;;;;;;;;;;350004;28;972;-76
2022/03/21 00:48:44;;;;;;;;;;;;;;;;;;350013;28;877;-76
2022/03/21 00:48:55;;;;;;;;;;;;;;;;;;349999;28;984;-76
2022/03/21 00:49:08;;;;;;;;;;;;;;;;;;349936;28;1967;-76
2022/03/21 00:49:18;;;;;;;;;;;;;;;;;;349955;28;856;-76
2022/03/21 00:49:28;;;;;;;;;;;;;;;;;;349989;28;913;-76
2022/03/21 00:49:38;;;;;;;;;;;;;;;;;;350044;28;893;-76
2022/03/21 00:49:49;;;;;;;;;;;;;;;;;;349982;28;893;-76
2022/03/21 00:49:59;;;;;;;;;;;;;;;;;;349868;28;1694;-76
2022/03/21 00:50:10;;;;;;;;;;;;;;;;;;351268;28;1620;-76
2022/03/21 00:50:22;;;;;;;;;;;;;;;;;;351426;28;950;-76
2022/03/21 00:50:32;;;;;;;;;;;;;;;;;;351409;28;900;-76
2022/03/21 00:50:42;;;;;;;;;;;;;;;;;;351449;28;900;-76
2022/03/21 00:50:53;;;;;;;;;;;;;;;;;;351450;28;975;-76
2022/03/21 00:51:03;;;;;;;;;;;;;;;;;;351401;28;964;-76
2022/03/21 00:51:13;;;;;;;;;;;;;;;;;;351426;28;975;-76
2022/03/21 00:51:23;;;;;;;;;;;;;;;;;;351409;28;830;-76
2022/03/21 00:51:34;;;;;;;;;;;;;;;;;;351332;28;905;-76
2022/03/21 00:51:44;;;;;;;;;;;;;;;;;;351428;28;916;-76
2022/03/21 00:51:54;;;;;;;;;;;;;;;;;;351416;28;991;-76
2022/03/21 00:52:05;;;;;;;;;;;;;;;;;;351350;28;1616;-76
2022/03/21 00:52:15;;;;;;;;;;;;;;;;;;351434;28;866;-76
2022/03/21 00:52:25;;;;;;;;;;;;;;;;;;351364;28;861;-76
2022/03/21 00:52:55;;;;;;;;;;;;;;;;;;351436;28;1015;-76
2022/03/21 00:53:05;;;;;;;;;;;;;;;;;;351400;28;921;-76
2022/03/21 00:53:16;;;;;;;;;;;;;;;;;;351398;28;877;-76
2022/03/21 00:53:27;;;;;;;;;;;;;;;;;;351386;28;892;-76
2022/03/21 00:53:37;;;;;;;;;;;;;;;;;;351407;28;901;-76
2022/03/21 00:53:47;;;;;;;;;;;;;;;;;;351422;28;937;-76
2022/03/21 00:53:57;;;;;;;;;;;;;;;;;;351378;28;1040;-76
2022/03/21 00:54:07;;;;;;;;;;;;;;;;;;351380;28;805;-76
2022/03/21 00:54:17;;;;;;;;;;;;;;;;;;351410;28;1564;-76
2022/03/21 00:54:28;;;;;;;;;;;;;;;;;;350030;28;1776;-76
2022/03/21 00:54:38;;;;;;;;;;;;;;;;;;350015;28;944;-76
2022/03/21 00:54:48;;;;;;;;;;;;;;;;;;350024;28;988;-76
2022/03/21 00:54:59;;;;;;;;;;;;;;;;;;349950;28;919;-76
2022/03/21 00:55:11;;;;;;;;;;;;;;;;;;349999;28;980;-76
2022/03/21 00:55:22;;;;;;;;;;;;;;;;;;350036;28;948;-76
2022/03/21 00:55:32;;;;;;;;;;;;;;;;;;350004;28;916;-76
2022/03/21 00:55:43;;;;;;;;;;;;;;;;;;349910;28;976;-76
2022/03/21 00:55:53;;;;;;;;;;;;;;;;;;349968;28;1019;-76
2022/03/21 00:56:03;;;;;;;;;;;;;;;;;;350018;28;913;-76
2022/03/21 00:56:14;;;;;;;;;;;;;;;;;;350031;28;829;-76
2022/03/21 00:56:24;;;;;;;;;;;;;;;;;;351085;28;1675;-76
2022/03/21 00:56:34;;;;;;;;;;;;;;;;;;351426;28;901;-76
2022/03/21 00:56:45;;;;;;;;;;;;;;;;;;351421;28;920;-76
2022/03/21 00:56:55;;;;;;;;;;;;;;;;;;351420;28;809;-76
2022/03/21 00:57:05;;;;;;;;;;;;;;;;;;351347;28;984;-76
2022/03/21 00:57:15;;;;;;;;;;;;;;;;;;351371;28;1244;-76
2022/03/21 00:57:26;;;;;;;;;;;;;;;;;;351338;28;1059;-76
2022/03/21 00:57:37;;;;;;;;;;;;;;;;;;350651;28;1697;-76
2022/03/21 00:57:47;;;;;;;;;;;;;;;;;;350389;28;1780;-76
2022/03/21 00:57:58;;;;;;;;;;;;;;;;;;351418;28;782;-76
2022/03/21 00:58:08;;;;;;;;;;;;;;;;;;351213;28;1112;-76
2022/03/21 00:58:19;;;;;;;;;;;;;;;;;;351418;28;805;-76
2022/03/21 00:58:29;;;;;;;;;;;;;;;;;;351324;28;813;-76
2022/03/21 00:58:39;;;;;;;;;;;;;;;;;;351394;28;912;-76
2022/03/21 00:58:49;;;;;;;;;;;;;;;;;;351434;28;765;-76
2022/03/21 00:59:00;;;;;;;;;;;;;;;;;;351445;28;880;-76
2022/03/21 00:59:10;;;;;;;;;;;;;;;;;;351346;28;968;-76
2022/03/21 00:59:20;;;;;;;;;;;;;;;;;;351438;28;841;-76
2022/03/21 00:59:31;;;;;;;;;;;;;;;;;;351181;28;1383;-76
2022/03/21 00:59:41;;;;;;;;;;;;;;;;;;350416;28;1441;-76
2022/03/21 00:59:51;;;;;;;;;;;;;;;;;;350478;28;1803;-76
2022/03/21 01:00:06;;;;;;;;;;;;;;;;;;350004;28;948;-76
2022/03/21 01:00:17;;;;;;;;;;;;;;;;;;350057;28;1127;-76
2022/03/21 01:00:28;;;;;;;;;;;;;;;;;;349980;28;889;-76
2022/03/21 01:00:39;;;;;;;;;;;;;;;;;;349897;28;957;-76
2022/03/21 01:00:49;;;;;;;;;;;;;;;;;;349875;28;1755;-76
2022/03/21 01:00:59;;;;;;;;;;;;;;;;;;350788;28;1728;-76
2022/03/21 01:01:10;;;;;;;;;;;;;;;;;;351008;28;1740;-76
2022/03/21 01:01:20;;;;;;;;;;;;;;;;;;351334;28;1015;-76
2022/03/21 01:01:30;;;;;;;;;;;;;;;;;;351394;28;786;-76
2022/03/21 01:01:40;;;;;;;;;;;;;;;;;;351392;28;908;-76
2022/03/21 01:01:51;;;;;;;;;;;;;;;;;;351339;28;972;-76
2022/03/21 01:02:01;;;;;;;;;;;;;;;;;;351401;28;917;-76
2022/03/21 01:02:12;;;;;;;;;;;;;;;;;;351436;28;786;-76
2022/03/21 01:02:22;;;;;;;;;;;;;;;;;;351403;28;904;-76
2022/03/21 01:02:33;;;;;;;;;;;;;;;;;;351367;28;999;-76
2022/03/21 01:02:43;;;;;;;;;;;;;;;;;;350878;28;1471;-76
2022/03/21 01:02:54;;;;;;;;;;;;;;;;;;350020;28;928;-76
2022/03/21 01:03:04;;;;;;;;;;;;;;;;;;349966;28;969;-76
2022/03/21 01:03:15;;;;;;;;;;;;;;;;;;350041;28;786;-76
2022/03/21 01:03:25;;;;;;;;;;;;;;;;;;349935;28;924;-76
2022/03/21 01:03:35;;;;;;;;;;;;;;;;;;350016;28;846;-76
2022/03/21 01:03:45;;;;;;;;;;;;;;;;;;350021;28;937;-76
2022/03/21 01:03:56;;;;;;;;;;;;;;;;;;350026;28;841;-76
2022/03/21 01:04:06;;;;;;;;;;;;;;;;;;349984;28;853;-76
2022/03/21 01:04:16;;;;;;;;;;;;;;;;;;349991;28;976;-76
2022/03/21 01:04:26;;;;;;;;;;;;;;;;;;350051;28;927;-76
2022/03/21 01:04:37;;;;;;;;;;;;;;;;;;349979;28;848;-76
2022/03/21 01:04:47;;;;;;;;;;;;;;;;;;350073;28;861;-76
2022/03/21 01:04:57;;;;;;;;;;;;;;;;;;349980;28;964;-76
2022/03/21 01:05:08;;;;;;;;;;;;;;;;;;349989;28;897;-76
2022/03/21 01:05:19;;;;;;;;;;;;;;;;;;349998;28;999;-76
2022/03/21 01:05:30;;;;;;;;;;;;;;;;;;349977;28;916;-76
2022/03/21 01:05:40;;;;;;;;;;;;;;;;;;349938;28;1032;-76
2022/03/21 01:05:50;;;;;;;;;;;;;;;;;;349981;28;972;-76
2022/03/21 01:06:01;;;;;;;;;;;;;;;;;;349982;28;1667;-76
2022/03/21 01:06:11;;;;;;;;;;;;;;;;;;350258;28;1660;-76
2022/03/21 01:06:22;;;;;;;;;;;;;;;;;;349959;28;1030;-76
2022/03/21 01:06:32;;;;;;;;;;;;;;;;;;349995;28;884;-76
2022/03/21 01:06:42;;;;;;;;;;;;;;;;;;349988;28;849;-76
2022/03/21 01:06:53;;;;;;;;;;;;;;;;;;350016;28;820;-76
2022/03/21 01:07:03;;;;;;;;;;;;;;;;;;349984;28;924;-76
2022/03/21 01:07:13;;;;;;;;;;;;;;;;;;350011;28;980;-76
2022/03/21 01:07:24;;;;;;;;;;;;;;;;;;350024;28;980;-76
2022/03/21 01:07:34;;;;;;;;;;;;;;;;;;349985;28;838;-76
2022/03/21 01:07:45;;;;;;;;;;;;;;;;;;350003;28;940;-76
2022/03/21 01:07:56;;;;;;;;;;;;;;;;;;350001;28;846;-76
2022/03/21 01:08:06;;;;;;;;;;;;;;;;;;349908;28;877;-76
2022/03/21 01:08:16;;;;;;;;;;;;;;;;;;350021;28;777;-76
2022/03/21 01:08:26;;;;;;;;;;;;;;;;;;350009;28;960;-76
2022/03/21 01:08:38;;;;;;;;;;;;;;;;;;349916;28;944;-76
2022/03/21 01:08:48;;;;;;;;;;;;;;;;;;350027;28;885;-76
2022/03/21 01:08:58;;;;;;;;;;;;;;;;;;350003;28;925;-76
2022/03/21 01:09:11;;;;;;;;;;;;;;;;;;349856;28;2037;-76
2022/03/21 01:09:21;;;;;;;;;;;;;;;;;;349986;28;908;-76
2022/03/21 01:09:32;;;;;;;;;;;;;;;;;;349917;28;776;-76
2022/03/21 01:09:42;;;;;;;;;;;;;;;;;;349975;28;920;-76
2022/03/21 01:09:53;;;;;;;;;;;;;;;;;;349992;28;979;-76
2022/03/21 01:10:04;;;;;;;;;;;;;;;;;;349866;28;916;-76
2022/03/21 01:10:16;;;;;;;;;;;;;;;;;;349779;28;949;-75
2022/03/21 01:10:26;;;;;;;;;;;;;;;;;;349849;28;920;-76
2022/03/21 01:10:37;;;;;;;;;;;;;;;;;;350022;28;814;-76
2022/03/21 01:10:47;;;;;;;;;;;;;;;;;;349973;28;969;-76
2022/03/21 01:10:57;;;;;;;;;;;;;;;;;;349955;28;975;-76
2022/03/21 01:11:07;;;;;;;;;;;;;;;;;;350338;28;1699;-75
2022/03/21 01:11:18;;;;;;;;;;;;;;;;;;349920;28;1740;-76
2022/03/21 01:11:28;;;;;;;;;;;;;;;;;;350014;28;814;-76
2022/03/21 01:11:38;;;;;;;;;;;;;;;;;;349988;28;913;-76
2022/03/21 01:11:48;;;;;;;;;;;;;;;;;;349962;28;1645;-75
2022/03/21 01:12:03;;;;;;;;;;;;;;;;;;349993;28;960;-76
2022/03/21 01:12:14;;;;;;;;;;;;;;;;;;349970;28;869;-76
2022/03/21 01:12:25;;;;;;;;;;;;;;;;;;349994;28;933;-76
2022/03/21 01:12:35;;;;;;;;;;;;;;;;;;349923;28;980;-76
2022/03/21 01:12:46;;;;;;;;;;;;;;;;;;349970;28;900;-76
2022/03/21 01:12:57;;;;;;;;;;;;;;;;;;349957;28;964;-76
2022/03/21 01:13:07;;;;;;;;;;;;;;;;;;349983;28;897;-76
2022/03/21 01:13:18;;;;;;;;;;;;;;;;;;349960;28;929;-76
2022/03/21 01:13:28;;;;;;;;;;;;;;;;;;349936;28;996;-76
2022/03/21 01:13:41;;;;;;;;;;;;;;;;;;350017;28;967;-76
2022/03/21 01:13:52;;;;;;;;;;;;;;;;;;349973;28;893;-76
2022/03/21 01:14:02;;;;;;;;;;;;;;;;;;350015;28;869;-76
2022/03/21 01:14:13;;;;;;;;;;;;;;;;;;349907;28;1003;-76
2022/03/21 01:14:23;;;;;;;;;;;;;;;;;;349945;28;797;-76
2022/03/21 01:14:33;;;;;;;;;;;;;;;;;;349982;28;900;-76
2022/03/21 01:14:43;;;;;;;;;;;;;;;;;;350004;28;781;-76
2022/03/21 01:14:53;;;;;;;;;;;;;;;;;;349969;28;983;-76
2022/03/21 01:15:04;;;;;;;;;;;;;;;;;;350261;28;1333;-76
2022/03/21 01:15:15;;;;;;;;;;;;;;;;;;351405;28;881;-76
2022/03/21 01:15:26;;;;;;;;;;;;;;;;;;351418;28;932;-76
2022/03/21 01:15:37;;;;;;;;;;;;;;;;;;351373;28;905;-76
2022/03/21 01:15:47;;;;;;;;;;;;;;;;;;350205;28;1749;-76
2022/03/21 01:15:57;;;;;;;;;;;;;;;;;;350390;28;1782;-76
2022/03/21 01:16:08;;;;;;;;;;;;;;;;;;349938;28;1685;-76
2022/03/21 01:16:18;;;;;;;;;;;;;;;;;;351358;28;925;-76
2022/03/21 01:16:29;;;;;;;;;;;;;;;;;;351333;27;921;-76
2022/03/21 01:16:39;;;;;;;;;;;;;;;;;;350566;28;1819;-76